CheckWX is a tool to help pilots better visualize weather data.  It is not intended as a substitute for an official pre-flight weather briefing.

01:08:43 UTC

EDDF TAF
Frankfurt am Main International Airport
Frankfurt-am-Main, Germany
TAF EDDF 232300Z 2400/2506 06006KT CAVOK

Feb-24@
00:00 UTC

Feb-24 @ 00:00 UTC

Feb-25@
06:00 UTC

Feb-25 @ 06:00 UTC

TAF EDDF 232300Z 2400/2506 06006KT CAVOK
Wind
  • 060° at 6 KTS
Conditions
No significant weather
Cloud Levels
  • No significant clouds